Time;durP1;ratioP1;P1;durP2;ratioP2;P2;SDS_P1;SDS_P2;PMS_P1;PMS_P2;Temp;Humidity;BMP_temperature;BMP_pressure;BME280_temperature;BME280_humidity;BME280_pressure;Samples;Min_cycle;Max_cycle;Signal;HPM_P1;HPM_P2
2021/04/30 00:01:31;;;;;;;11.43;3.63;;;8.00;99.90;;;;;;5102119;27;20087;-63
2021/04/30 00:03:56;;;;;;;12.70;3.15;;;8.00;99.90;;;;;;5098437;27;20047;-64
2021/04/30 00:06:22;;;;;;;13.55;3.45;;;8.00;99.90;;;;;;5106642;27;20040;-64
2021/04/30 00:08:47;;;;;;;11.18;3.15;;;8.00;99.90;;;;;;5101298;28;20028;-64
2021/04/30 00:11:13;;;;;;;20.70;3.63;;;8.00;99.90;;;;;;5105830;27;20016;-64
2021/04/30 00:13:39;;;;;;;12.30;2.38;;;8.00;99.90;;;;;;5098093;28;20052;-64
2021/04/30 00:16:07;;;;;;;11.65;4.18;;;8.00;99.90;;;;;;5104246;27;20123;-63
2021/04/30 00:18:33;;;;;;;13.75;2.45;;;7.90;99.90;;;;;;5097327;27;20116;-64
2021/04/30 00:21:00;;;;;;;13.05;2.28;;;7.90;99.90;;;;;;5098879;27;20444;-63
2021/04/30 00:23:27;;;;;;;26.73;3.17;;;8.00;99.90;;;;;;5099160;27;20112;-63
2021/04/30 00:25:54;;;;;;;15.27;2.10;;;8.10;99.90;;;;;;5101511;27;20032;-64
2021/04/30 00:28:20;;;;;;;7.97;2.30;;;8.00;99.90;;;;;;5097327;28;20051;-64
2021/04/30 00:30:48;;;;;;;15.18;2.65;;;8.00;99.90;;;;;;5098874;28;20032;-64
2021/04/30 00:33:13;;;;;;;7.40;2.00;;;7.90;99.90;;;;;;5103242;27;20120;-64
2021/04/30 00:35:40;;;;;;;18.95;3.42;;;7.90;99.90;;;;;;5099395;28;20118;-64
2021/04/30 00:38:06;;;;;;;20.45;2.97;;;8.00;99.90;;;;;;5098824;27;20124;-63
2021/04/30 00:40:32;;;;;;;14.05;2.33;;;8.00;99.90;;;;;;5100184;28;20500;-63
2021/04/30 00:42:57;;;;;;;13.15;2.33;;;7.90;99.90;;;;;;5097829;27;20040;-64
2021/04/30 00:45:24;;;;;;;14.90;2.90;;;7.90;99.90;;;;;;5099812;28;20031;-64
2021/04/30 00:47:51;;;;;;;9.30;2.60;;;7.90;99.90;;;;;;5096968;27;20039;-64
2021/04/30 00:50:19;;;;;;;9.45;1.88;;;8.00;99.90;;;;;;5102123;27;20207;-64
2021/04/30 00:52:44;;;;;;;10.48;2.15;;;7.90;99.90;;;;;;5098322;28;20042;-64
2021/04/30 00:55:12;;;;;;;10.13;2.17;;;8.00;99.90;;;;;;5098159;27;20036;-64
2021/04/30 00:57:40;;;;;;;11.32;1.92;;;7.90;99.90;;;;;;5097473;27;20043;-64
2021/04/30 01:00:09;;;;;;;11.82;2.75;;;8.00;99.90;;;;;;5097296;27;20042;-63
2021/04/30 01:02:35;;;;;;;12.18;2.50;;;7.90;99.90;;;;;;5099801;28;20028;-64
2021/04/30 01:05:02;;;;;;;10.10;2.60;;;8.00;99.90;;;;;;5096019;28;20044;-64
2021/04/30 01:07:28;;;;;;;14.90;2.85;;;8.00;99.90;;;;;;5100130;28;20031;-63
2021/04/30 01:09:55;;;;;;;12.52;2.22;;;8.00;99.90;;;;;;5094339;28;20052;-64
2021/04/30 01:12:22;;;;;;;12.57;2.10;;;8.00;99.90;;;;;;5099939;28;20042;-63
2021/04/30 01:14:48;;;;;;;31.20;2.95;;;8.00;99.90;;;;;;5097038;28;20023;-64
2021/04/30 01:17:13;;;;;;;15.13;2.38;;;8.00;99.90;;;;;;5098376;28;20365;-63
2021/04/30 01:19:39;;;;;;;11.57;2.13;;;8.10;99.90;;;;;;5098495;28;20031;-64
2021/04/30 01:22:04;;;;;;;13.75;3.08;;;8.10;99.90;;;;;;5096837;28;20070;-64
2021/04/30 01:24:30;;;;;;;13.85;2.42;;;8.10;99.90;;;;;;5099438;27;20034;-63
2021/04/30 01:26:56;;;;;;;14.73;2.83;;;8.00;99.90;;;;;;5095619;28;20039;-64
2021/04/30 01:29:22;;;;;;;19.55;2.47;;;8.00;99.90;;;;;;5095688;27;20557;-64
2021/04/30 01:31:48;;;;;;;12.93;2.25;;;8.00;99.90;;;;;;5097649;28;20028;-64
2021/04/30 01:34:14;;;;;;;11.98;2.55;;;8.00;99.90;;;;;;5096931;28;20041;-64
2021/04/30 01:36:41;;;;;;;19.67;2.55;;;8.10;99.90;;;;;;5100561;28;20777;-64
2021/04/30 01:39:09;;;;;;;7.85;2.25;;;8.10;99.90;;;;;;5098155;28;20035;-63
2021/04/30 01:41:36;;;;;;;12.18;2.72;;;8.10;99.90;;;;;;5096302;28;20064;-63
2021/04/30 01:44:06;;;;;;;10.90;2.60;;;8.10;99.90;;;;;;5098862;28;20413;-64
2021/04/30 01:46:32;;;;;;;13.13;2.20;;;8.10;99.90;;;;;;5096395;28;20071;-64
2021/04/30 01:48:57;;;;;;;9.50;2.13;;;8.10;99.90;;;;;;5094943;28;20066;-64
2021/04/30 01:51:23;;;;;;;17.85;3.20;;;8.10;99.90;;;;;;5097395;28;20496;-64
2021/04/30 01:53:48;;;;;;;9.43;2.13;;;8.10;99.90;;;;;;5095713;28;20400;-63
2021/04/30 01:56:15;;;;;;;7.55;2.17;;;8.10;99.90;;;;;;5097257;27;20059;-64
2021/04/30 01:58:42;;;;;;;15.27;2.58;;;8.10;99.90;;;;;;5096722;28;20030;-64
2021/04/30 02:01:08;;;;;;;14.05;1.95;;;8.10;99.90;;;;;;5097620;28;20028;-64
2021/04/30 02:03:34;;;;;;;8.85;1.98;;;8.10;99.90;;;;;;5098071;28;20076;-64
2021/04/30 02:06:00;;;;;;;10.80;2.28;;;8.20;99.90;;;;;;5095133;28;20028;-64
2021/04/30 02:08:26;;;;;;;13.00;2.90;;;8.20;99.90;;;;;;5094942;28;20036;-64
2021/04/30 02:10:52;;;;;;;10.10;2.88;;;8.20;99.90;;;;;;5099206;27;20032;-64
2021/04/30 02:13:19;;;;;;;7.75;2.25;;;8.20;99.90;;;;;;5096292;28;20036;-64
2021/04/30 02:15:47;;;;;;;21.38;3.88;;;8.20;99.90;;;;;;5098296;28;20035;-63
2021/04/30 02:18:13;;;;;;;9.95;1.95;;;8.30;99.90;;;;;;5094960;28;20043;-64
2021/04/30 02:20:39;;;;;;;9.35;2.70;;;8.20;99.90;;;;;;5096365;28;20028;-64
2021/04/30 02:23:04;;;;;;;11.77;2.13;;;8.20;99.90;;;;;;5099551;27;20096;-65
2021/04/30 02:25:31;;;;;;;12.73;3.15;;;8.20;99.90;;;;;;5117260;27;20036;-64
2021/04/30 02:27:58;;;;;;;14.15;2.80;;;8.20;99.90;;;;;;5094784;28;20040;-64
2021/04/30 02:30:26;;;;;;;15.02;2.60;;;8.20;99.90;;;;;;5098550;28;20423;-65
2021/04/30 02:32:52;;;;;;;11.80;2.47;;;8.20;99.90;;;;;;5095377;28;20085;-65
2021/04/30 02:35:19;;;;;;;13.57;2.10;;;8.20;99.90;;;;;;5097865;28;20480;-65
2021/04/30 02:37:46;;;;;;;9.55;2.50;;;8.20;99.90;;;;;;5102543;27;20032;-65
2021/04/30 02:40:15;;;;;;;11.52;2.33;;;8.20;99.90;;;;;;5096545;28;20135;-65
2021/04/30 02:42:41;;;;;;;13.95;3.35;;;8.20;99.90;;;;;;5097414;28;20063;-64
2021/04/30 02:45:08;;;;;;;9.77;2.38;;;8.20;99.90;;;;;;5097134;28;20036;-65
2021/04/30 02:47:35;;;;;;;15.00;2.85;;;8.20;99.90;;;;;;5096590;28;20130;-64
2021/04/30 02:50:06;;;;;;;15.77;2.72;;;8.20;99.90;;;;;;5097526;28;20051;-65
2021/04/30 02:52:33;;;;;;;12.25;2.80;;;8.20;99.90;;;;;;5096297;28;20043;-64
2021/04/30 02:54:59;;;;;;;9.23;2.00;;;8.20;99.90;;;;;;5097928;28;20543;-64
2021/04/30 02:57:25;;;;;;;11.70;2.60;;;8.20;99.90;;;;;;5094561;28;20032;-65
2021/04/30 02:59:50;;;;;;;13.90;3.03;;;8.20;99.90;;;;;;5098215;28;20031;-65
2021/04/30 03:02:17;;;;;;;7.32;1.95;;;8.20;99.90;;;;;;5095513;28;20400;-65
2021/04/30 03:04:42;;;;;;;11.23;2.03;;;8.20;99.90;;;;;;5097388;28;20481;-64
2021/04/30 03:07:08;;;;;;;11.15;2.20;;;8.20;99.90;;;;;;5096693;28;20085;-64
2021/04/30 03:09:35;;;;;;;7.50;2.42;;;8.20;99.90;;;;;;5095841;28;20593;-65
2021/04/30 03:12:00;;;;;;;9.40;3.05;;;8.20;99.90;;;;;;5098344;28;20036;-64
2021/04/30 03:14:26;;;;;;;10.15;2.40;;;8.10;99.90;;;;;;5095139;28;20481;-65
2021/04/30 03:16:52;;;;;;;15.25;2.55;;;8.10;99.90;;;;;;5098321;28;20040;-64
2021/04/30 03:19:17;;;;;;;16.90;2.67;;;8.20;99.90;;;;;;5092284;28;20035;-65
2021/04/30 03:21:43;;;;;;;12.05;2.75;;;8.10;99.90;;;;;;5096978;28;20043;-64
2021/04/30 03:24:09;;;;;;;4.53;2.10;;;8.10;99.90;;;;;;5103753;27;20131;-65
2021/04/30 03:26:35;;;;;;;20.40;4.10;;;8.10;99.90;;;;;;5096005;28;20131;-65
2021/04/30 03:29:02;;;;;;;12.27;2.67;;;8.10;99.90;;;;;;5096496;28;20043;-65
2021/04/30 03:31:28;;;;;;;12.85;3.92;;;8.10;99.90;;;;;;5094766;28;20752;-65
2021/04/30 03:33:53;;;;;;;11.25;2.80;;;8.00;99.90;;;;;;5101446;28;20147;-65
2021/04/30 03:36:20;;;;;;;19.58;3.42;;;8.00;99.90;;;;;;5103842;27;20499;-65
2021/04/30 03:38:47;;;;;;;17.27;2.72;;;7.90;99.90;;;;;;5101657;27;20633;-64
2021/04/30 03:41:13;;;;;;;9.43;2.67;;;7.90;99.90;;;;;;5099166;27;20059;-64
2021/04/30 03:43:39;;;;;;;12.13;2.58;;;7.90;99.90;;;;;;5100567;28;20028;-64
2021/04/30 03:46:05;;;;;;;13.13;3.35;;;7.80;99.90;;;;;;5100274;28;20032;-64
2021/04/30 03:48:31;;;;;;;12.70;3.47;;;7.80;99.90;;;;;;5098418;28;20036;-64
2021/04/30 03:50:57;;;;;;;13.90;3.30;;;7.90;99.90;;;;;;5101374;28;20074;-64
2021/04/30 03:53:23;;;;;;;12.18;2.90;;;8.00;99.90;;;;;;5105565;27;20023;-65
2021/04/30 03:55:49;;;;;;;20.65;4.18;;;7.90;99.90;;;;;;5101971;28;20374;-65
2021/04/30 03:58:15;;;;;;;12.85;2.92;;;7.90;99.90;;;;;;5098205;28;20036;-64
2021/04/30 04:00:41;;;;;;;11.82;2.92;;;7.90;99.90;;;;;;5099822;28;20032;-65
2021/04/30 04:03:06;;;;;;;10.25;3.17;;;7.90;99.90;;;;;;5099591;28;20043;-65
2021/04/30 04:05:32;;;;;;;21.10;4.40;;;7.80;99.90;;;;;;5099006;28;20173;-65
2021/04/30 04:07:57;;;;;;;17.67;4.75;;;7.70;99.90;;;;;;5100314;28;20055;-65
2021/04/30 04:10:23;;;;;;;13.73;3.28;;;7.80;99.90;;;;;;5098105;28;20440;-65
2021/04/30 04:12:48;;;;;;;16.95;4.28;;;7.80;99.90;;;;;;5101913;27;20468;-64
2021/04/30 04:15:16;;;;;;;11.48;3.55;;;7.80;99.90;;;;;;5098412;28;20036;-65
2021/04/30 04:17:42;;;;;;;12.68;4.13;;;7.80;99.90;;;;;;5100372;27;20122;-64
2021/04/30 04:20:08;;;;;;;17.00;4.00;;;7.80;99.90;;;;;;5099198;28;20119;-65
2021/04/30 04:22:33;;;;;;;17.45;4.38;;;7.70;99.90;;;;;;5099283;28;20085;-65
2021/04/30 04:24:59;;;;;;;23.17;4.00;;;7.70;99.90;;;;;;5105837;27;20036;-64
2021/04/30 04:27:25;;;;;;;15.10;4.22;;;7.70;99.90;;;;;;5098091;28;20027;-66
2021/04/30 04:29:51;;;;;;;13.88;4.80;;;7.70;99.90;;;;;;5100440;28;20036;-65
2021/04/30 04:32:16;;;;;;;12.32;4.38;;;7.60;99.90;;;;;;5097849;28;20047;-65
2021/04/30 04:34:42;;;;;;;25.27;4.38;;;7.60;99.90;;;;;;5100340;28;20055;-65
2021/04/30 04:37:08;;;;;;;18.88;4.35;;;7.70;99.90;;;;;;5104302;27;20376;-65
2021/04/30 04:39:33;;;;;;;19.70;4.40;;;7.70;99.90;;;;;;5098505;27;20400;-65
2021/04/30 04:42:00;;;;;;;17.30;4.78;;;7.70;99.90;;;;;;5099501;28;20031;-65
2021/04/30 04:44:27;;;;;;;12.00;4.03;;;7.80;99.90;;;;;;5100359;28;20411;-65
2021/04/30 04:46:53;;;;;;;20.75;3.97;;;7.70;99.90;;;;;;5099877;28;20496;-65
2021/04/30 04:49:18;;;;;;;15.05;4.32;;;7.70;99.90;;;;;;5103740;28;20032;-65
2021/04/30 04:51:44;;;;;;;13.98;3.60;;;7.80;99.90;;;;;;5100486;27;20502;-66
2021/04/30 04:54:09;;;;;;;15.65;4.00;;;7.70;99.90;;;;;;5097971;28;20060;-65
2021/04/30 04:56:36;;;;;;;19.33;4.88;;;7.70;99.90;;;;;;5106166;28;20024;-66
2021/04/30 04:59:02;;;;;;;18.48;3.95;;;7.70;99.90;;;;;;5098058;28;20119;-65
2021/04/30 05:01:28;;;;;;;14.32;4.25;;;7.70;99.90;;;;;;5098939;28;20378;-65
2021/04/30 05:03:54;;;;;;;10.93;4.20;;;7.70;99.90;;;;;;5099107;28;20047;-65
2021/04/30 05:06:20;;;;;;;19.00;4.57;;;7.70;99.90;;;;;;5097424;28;20036;-65
2021/04/30 05:08:45;;;;;;;16.58;4.35;;;7.80;99.90;;;;;;5099726;28;20073;-65
2021/04/30 05:11:11;;;;;;;13.30;4.25;;;7.70;99.90;;;;;;5097075;28;20024;-65
2021/04/30 05:13:37;;;;;;;18.00;4.70;;;7.80;99.90;;;;;;5099665;28;20056;-65
2021/04/30 05:16:03;;;;;;;15.55;4.22;;;7.80;99.90;;;;;;5097995;27;20031;-65
2021/04/30 05:18:31;;;;;;;13.68;4.25;;;7.80;99.90;;;;;;5098018;28;20032;-65
2021/04/30 05:20:57;;;;;;;17.58;4.57;;;7.80;99.90;;;;;;5098518;28;20028;-64
2021/04/30 05:23:23;;;;;;;12.65;4.68;;;7.90;99.90;;;;;;5101985;27;20145;-65
2021/04/30 05:25:52;;;;;;;21.50;5.13;;;7.90;99.90;;;;;;5099495;28;20028;-65
2021/04/30 05:28:17;;;;;;;13.18;4.40;;;7.90;99.90;;;;;;5096377;28;20036;-65
2021/04/30 05:30:43;;;;;;;20.73;6.38;;;7.90;99.90;;;;;;5099838;27;20043;-65
2021/04/30 05:33:08;;;;;;;37.65;6.32;;;7.90;99.90;;;;;;5096422;28;20435;-65
2021/04/30 05:35:34;;;;;;;29.35;5.97;;;7.90;99.90;;;;;;5098125;28;20100;-65
2021/04/30 05:38:00;;;;;;;19.25;4.90;;;8.00;99.90;;;;;;5096970;27;20774;-65
2021/04/30 05:40:26;;;;;;;17.60;5.03;;;8.00;99.90;;;;;;5092901;28;20024;-65
2021/04/30 05:42:51;;;;;;;17.98;5.93;;;8.00;99.90;;;;;;5096488;28;20036;-65
2021/04/30 05:45:18;;;;;;;16.52;5.78;;;8.00;99.90;;;;;;5096317;27;20032;-64
2021/04/30 05:47:44;;;;;;;24.25;6.53;;;8.00;99.90;;;;;;5093306;28;20609;-65
2021/04/30 05:50:10;;;;;;;19.67;6.70;;;8.00;99.90;;;;;;5095481;28;20428;-65
2021/04/30 05:52:36;;;;;;;14.18;5.88;;;8.00;99.90;;;;;;5094574;28;20040;-65
2021/04/30 05:55:03;;;;;;;23.05;6.18;;;8.00;99.90;;;;;;5093149;28;20036;-65
2021/04/30 05:57:29;;;;;;;19.23;6.68;;;8.10;99.90;;;;;;5094582;28;20032;-65
2021/04/30 05:59:54;;;;;;;18.45;6.40;;;8.00;99.90;;;;;;5092496;27;20066;-65
2021/04/30 06:02:20;;;;;;;17.42;6.45;;;8.10;99.90;;;;;;5093700;27;20036;-65
2021/04/30 06:04:45;;;;;;;24.40;6.05;;;8.10;99.90;;;;;;5093407;28;20038;-65
2021/04/30 06:07:11;;;;;;;23.98;7.03;;;8.10;99.90;;;;;;5092960;27;20043;-65
2021/04/30 06:09:36;;;;;;;25.40;6.65;;;8.10;99.90;;;;;;5103649;27;20066;-65
2021/04/30 06:12:02;;;;;;;18.75;8.00;;;8.10;99.90;;;;;;5099890;27;20548;-65
2021/04/30 06:14:33;;;;;;;18.10;7.45;;;8.10;99.90;;;;;;5092897;28;20032;-65
2021/04/30 06:16:59;;;;;;;;;;;8.20;99.90;;;;;;5101572;27;20035;-65
2021/04/30 06:19:25;;;;;;;26.92;8.80;;;8.20;99.90;;;;;;5096207;28;19916;-65
2021/04/30 06:21:51;;;;;;;19.95;8.10;;;8.20;99.90;;;;;;5097936;28;20119;-65
2021/04/30 06:24:17;;;;;;;21.90;7.85;;;8.20;99.90;;;;;;5104328;27;20051;-65
2021/04/30 06:26:43;;;;;;;24.58;8.85;;;8.20;99.90;;;;;;5095277;28;20066;-65
2021/04/30 06:29:09;;;;;;;17.83;6.95;;;8.20;99.90;;;;;;5090411;28;20499;-65
2021/04/30 06:31:35;;;;;;;27.08;7.95;;;8.20;99.90;;;;;;5098962;28;20540;-65
2021/04/30 06:34:01;;;;;;;22.60;7.05;;;8.20;99.90;;;;;;5095705;28;20051;-65
2021/04/30 06:36:27;;;;;;;29.33;7.82;;;8.30;99.90;;;;;;5095551;28;20062;-65
2021/04/30 06:38:52;;;;;;;21.23;7.13;;;8.30;99.90;;;;;;5093802;28;20031;-65
2021/04/30 06:41:18;;;;;;;27.00;7.53;;;8.40;99.90;;;;;;5099520;28;20035;-65
2021/04/30 06:43:43;;;;;;;21.88;6.97;;;8.30;99.90;;;;;;5089697;28;20053;-65
2021/04/30 06:46:09;;;;;;;29.52;8.85;;;8.30;99.90;;;;;;5092902;28;20031;-65
2021/04/30 06:48:34;;;;;;;23.83;7.43;;;8.40;99.90;;;;;;5092730;28;20110;-65
2021/04/30 06:51:00;;;;;;;19.40;7.78;;;8.30;99.90;;;;;;5106829;27;20092;-67
2021/04/30 06:53:26;;;;;;;20.15;7.97;;;8.30;99.90;;;;;;5110197;27;20039;-65
2021/04/30 06:55:51;;;;;;;21.42;7.72;;;8.40;99.90;;;;;;5107714;28;20088;-65
2021/04/30 06:58:17;;;;;;;24.45;7.40;;;8.30;99.90;;;;;;5110180;27;20129;-65
2021/04/30 07:00:44;;;;;;;24.20;7.32;;;8.30;99.90;;;;;;5108524;27;20035;-65
2021/04/30 07:03:09;;;;;;;32.80;7.95;;;8.40;99.90;;;;;;5106503;28;20454;-65
2021/04/30 07:05:35;;;;;;;21.67;7.80;;;8.40;99.90;;;;;;5109449;27;20714;-65
2021/04/30 07:08:03;;;;;;;22.67;7.68;;;8.40;99.90;;;;;;5108230;27;20035;-65
2021/04/30 07:10:33;;;;;;;25.13;7.82;;;8.40;99.90;;;;;;5108355;27;20492;-65
2021/04/30 07:12:59;;;;;;;21.77;8.27;;;8.40;99.90;;;;;;5109288;27;20054;-65
2021/04/30 07:15:25;;;;;;;24.67;8.93;;;8.40;99.90;;;;;;5113054;27;20179;-65
2021/04/30 07:17:51;;;;;;;27.15;8.68;;;8.40;99.90;;;;;;5109188;27;20046;-65
2021/04/30 07:20:17;;;;;;;26.98;9.32;;;8.40;99.90;;;;;;5109007;27;20055;-66
2021/04/30 07:22:42;;;;;;;23.25;8.68;;;8.40;99.90;;;;;;5101365;28;20089;-65
2021/04/30 07:25:09;;;;;;;21.67;8.95;;;8.40;99.90;;;;;;5099491;28;20074;-64
2021/04/30 07:27:34;;;;;;;27.70;8.68;;;8.40;99.90;;;;;;5094934;28;20127;-65
2021/04/30 07:30:00;;;;;;;25.55;9.40;;;8.40;99.90;;;;;;5094150;28;20114;-65
2021/04/30 07:32:25;;;;;;;22.15;9.00;;;8.40;99.90;;;;;;5102751;28;20056;-65
2021/04/30 07:34:51;;;;;;;21.00;8.68;;;8.50;99.90;;;;;;5098546;27;20036;-65
2021/04/30 07:37:17;;;;;;;21.58;8.68;;;8.60;99.90;;;;;;5097546;27;20078;-65
2021/04/30 07:39:44;;;;;;;23.40;8.35;;;8.60;99.90;;;;;;5112276;27;20032;-65
2021/04/30 07:42:10;;;;;;;22.42;8.30;;;8.70;99.90;;;;;;5113291;27;20083;-65
2021/04/30 07:44:37;;;;;;;25.73;8.60;;;8.80;99.90;;;;;;5113291;27;20035;-65
2021/04/30 07:47:03;;;;;;;26.65;9.38;;;8.70;99.90;;;;;;5109272;27;20028;-65
2021/04/30 07:49:29;;;;;;;21.58;8.02;;;8.80;99.90;;;;;;5115185;27;20465;-65
2021/04/30 07:51:54;;;;;;;17.45;8.18;;;8.80;99.90;;;;;;5111509;27;20032;-65
2021/04/30 07:54:20;;;;;;;17.80;8.18;;;8.70;99.90;;;;;;5116235;27;20046;-65
2021/04/30 07:56:47;;;;;;;19.15;7.97;;;8.80;99.90;;;;;;5111222;27;20718;-65
2021/04/30 07:59:13;;;;;;;23.40;8.00;;;8.80;99.90;;;;;;5114002;27;20055;-65
2021/04/30 08:01:39;;;;;;;19.42;8.63;;;8.90;99.90;;;;;;5110102;27;20032;-65
2021/04/30 08:04:05;;;;;;;17.30;8.02;;;9.00;99.90;;;;;;5098259;27;20050;-65
2021/04/30 08:06:31;;;;;;;15.68;8.05;;;9.00;99.90;;;;;;5100555;27;20477;-65
2021/04/30 08:08:57;;;;;;;14.82;6.85;;;9.10;99.90;;;;;;5099645;27;20034;-65
2021/04/30 08:11:22;;;;;;;15.48;6.80;;;9.00;99.90;;;;;;5101614;27;20032;-65
2021/04/30 08:13:48;;;;;;;16.45;7.30;;;9.10;99.90;;;;;;5104326;27;20084;-65
2021/04/30 08:16:13;;;;;;;14.43;6.72;;;9.00;99.90;;;;;;5099693;28;20097;-65
2021/04/30 08:18:39;;;;;;;17.33;6.63;;;9.00;99.90;;;;;;5098613;28;20028;-65
2021/04/30 08:21:05;;;;;;;11.90;7.13;;;9.00;99.90;;;;;;5105465;27;20058;-65
2021/04/30 08:23:32;;;;;;;13.43;7.78;;;8.90;99.90;;;;;;5104306;27;20105;-66
2021/04/30 08:25:57;;;;;;;13.32;7.53;;;8.90;99.90;;;;;;5098030;28;20032;-64
2021/04/30 08:28:23;;;;;;;13.50;6.63;;;8.90;99.90;;;;;;5100592;27;20043;-66
2021/04/30 08:30:49;;;;;;;14.27;7.15;;;8.90;99.90;;;;;;5098939;28;20276;-65
2021/04/30 08:33:15;;;;;;;12.18;6.82;;;8.80;99.90;;;;;;5108910;27;20066;-65
2021/04/30 08:35:40;;;;;;;17.15;8.15;;;8.80;99.90;;;;;;5102531;27;20050;-65
2021/04/30 08:38:06;;;;;;;15.45;6.95;;;8.80;99.90;;;;;;5094229;27;20345;-65
2021/04/30 08:40:31;;;;;;;17.60;7.57;;;8.80;99.90;;;;;;5101584;27;20032;-65
2021/04/30 08:42:58;;;;;;;12.55;7.43;;;8.80;99.90;;;;;;5100870;27;20036;-65
2021/04/30 08:45:25;;;;;;;12.40;7.50;;;8.80;99.90;;;;;;5110153;27;20034;-66
2021/04/30 08:47:51;;;;;;;16.40;7.70;;;8.70;99.90;;;;;;5105276;27;20039;-65
2021/04/30 08:50:17;;;;;;;16.60;8.10;;;8.70;99.90;;;;;;5097755;27;20043;-65
2021/04/30 08:52:43;;;;;;;17.30;8.27;;;8.60;99.90;;;;;;5098792;27;20046;-66
2021/04/30 08:55:20;;;;;;;15.70;8.77;;;8.60;99.90;;;;;;5098695;28;20051;-66
2021/04/30 08:57:51;;;;;;;19.27;8.80;;;8.50;99.90;;;;;;5095842;28;20036;-66
2021/04/30 09:00:18;;;;;;;19.63;9.07;;;8.50;99.90;;;;;;5097174;28;20504;-66
2021/04/30 09:02:43;;;;;;;17.55;9.10;;;8.50;99.90;;;;;;5098803;28;20039;-67
2021/04/30 09:05:12;;;;;;;17.30;9.25;;;8.60;99.90;;;;;;5094915;28;20036;-66
2021/04/30 09:07:42;;;;;;;16.88;8.82;;;8.50;99.90;;;;;;5097039;28;20357;-66
2021/04/30 09:10:13;;;;;;;22.30;9.48;;;8.60;99.90;;;;;;5096293;28;20509;-65
2021/04/30 09:12:39;;;;;;;;;;;8.70;99.90;;;;;;5097511;28;20031;-65
2021/04/30 09:15:07;;;;;;;14.07;7.65;;;8.60;99.90;;;;;;5096531;28;19911;-65
2021/04/30 09:17:34;;;;;;;18.45;8.48;;;8.70;99.90;;;;;;5095711;28;20597;-66
2021/04/30 09:20:03;;;;;;;19.88;7.80;;;8.70;99.90;;;;;;5101246;27;20032;-66
2021/04/30 09:22:30;;;;;;;16.98;7.82;;;8.70;99.90;;;;;;5098351;28;20115;-66
2021/04/30 09:24:58;;;;;;;21.77;9.32;;;8.70;99.90;;;;;;5096604;28;20074;-65
2021/04/30 09:27:42;;;;;;;18.25;8.63;;;8.70;99.90;;;;;;5089886;28;20400;-64
2021/04/30 09:30:16;;;;;;;14.70;7.88;;;8.70;99.90;;;;;;5088842;28;20040;-66
2021/04/30 09:33:03;;;;;;;13.07;8.00;;;8.70;99.90;;;;;;5104660;28;20474;-65
2021/04/30 09:35:30;;;;;;;11.13;6.78;;;8.80;99.90;;;;;;5095264;28;20060;-66
2021/04/30 09:37:59;;;;;;;16.17;6.85;;;8.80;99.90;;;;;;5092489;28;20107;-65
2021/04/30 09:40:33;;;;;;;11.35;5.88;;;8.80;99.90;;;;;;5090587;28;20473;-65
2021/04/30 09:43:07;;;;;;;11.52;5.93;;;8.80;99.90;;;;;;5096054;27;20027;-65
2021/04/30 09:45:33;;;;;;;13.48;5.78;;;8.70;99.90;;;;;;5096498;28;20040;-65
2021/04/30 09:48:07;;;;;;;11.20;5.15;;;8.70;99.90;;;;;;5091723;27;20568;-65
2021/04/30 09:50:34;;;;;;;9.23;5.13;;;8.70;99.90;;;;;;5095762;28;20036;-65
2021/04/30 09:53:04;;;;;;;9.40;4.75;;;8.70;99.90;;;;;;5098003;27;20043;-65
2021/04/30 09:55:49;;;;;;;;;;;8.60;99.90;;;;;;5095776;28;20089;-65
2021/04/30 09:58:18;;;;;;;11.85;5.80;;;8.50;99.90;;;;;;5096921;28;19965;-65
2021/04/30 10:00:46;;;;;;;12.45;5.63;;;8.50;99.90;;;;;;5098033;28;20126;-65
2021/04/30 10:03:22;;;;;;;9.02;5.45;;;8.50;99.90;;;;;;5096382;28;20028;-66
2021/04/30 10:06:09;;;;;;;10.68;6.13;;;8.40;99.90;;;;;;5096042;28;20460;-66
2021/04/30 10:08:35;;;;;;;17.27;7.55;;;8.40;99.90;;;;;;5102004;28;20047;-66
2021/04/30 10:11:02;;;;;;;14.38;6.80;;;8.40;99.90;;;;;;5096169;28;20096;-66
2021/04/30 10:13:29;;;;;;;12.20;7.30;;;8.40;99.90;;;;;;5098153;28;20112;-66
2021/04/30 10:15:55;;;;;;;14.15;6.38;;;8.40;99.90;;;;;;5095690;28;20094;-66
2021/04/30 10:18:21;;;;;;;12.63;6.85;;;8.30;99.90;;;;;;5097534;28;20442;-66
2021/04/30 10:20:47;;;;;;;16.75;7.28;;;8.30;99.90;;;;;;5096489;28;20024;-66
2021/04/30 10:23:19;;;;;;;17.02;7.10;;;8.30;99.90;;;;;;5097593;28;20040;-67
2021/04/30 10:25:49;;;;;;;15.45;8.77;;;8.20;99.90;;;;;;5097221;27;20035;-67
2021/04/30 10:28:21;;;;;;;20.58;8.23;;;8.20;99.90;;;;;;5098253;28;20761;-67
2021/04/30 10:31:07;;;;;;;16.58;8.48;;;8.10;99.90;;;;;;5096593;27;20080;-67
2021/04/30 10:33:50;;;;;;;12.93;6.53;;;8.10;99.90;;;;;;5096794;28;20042;-67
2021/04/30 10:36:29;;;;;;;16.50;7.25;;;8.30;99.90;;;;;;5099131;27;20031;-65
2021/04/30 10:38:55;;;;;;;13.98;6.40;;;8.30;99.90;;;;;;5098608;28;20047;-67
2021/04/30 10:41:35;;;;;;;10.23;6.10;;;8.20;99.90;;;;;;5095054;28;20035;-66
2021/04/30 10:44:24;;;;;;;15.15;6.90;;;8.20;99.90;;;;;;5094321;28;20750;-67
2021/04/30 10:46:52;;;;;;;14.48;6.63;;;8.30;99.90;;;;;;5098701;28;20039;-66
2021/04/30 10:49:21;;;;;;;15.25;8.02;;;8.40;99.90;;;;;;5094346;28;20039;-66
2021/04/30 10:52:06;;;;;;;11.57;7.53;;;8.50;99.90;;;;;;5095358;28;20036;-66
2021/04/30 10:54:36;;;;;;;14.10;7.32;;;8.60;99.90;;;;;;5092409;28;20056;-66
2021/04/30 10:57:03;;;;;;;;;;;8.70;99.90;;;;;;5091856;28;20040;-66
2021/04/30 10:59:39;;;;;;;11.63;6.70;;;9.00;99.90;;;;;;5092104;28;19920;-66
2021/04/30 11:02:29;;;;;;;11.35;6.22;;;9.10;99.90;;;;;;5096533;28;20101;-66
2021/04/30 11:05:06;;;;;;;10.73;5.18;;;9.10;99.90;;;;;;5095032;28;20100;-66
2021/04/30 11:07:45;;;;;;;14.50;5.72;;;9.30;99.90;;;;;;5095079;28;20627;-66
2021/04/30 11:13:06;;;;;;;11.10;6.25;;;9.40;99.90;;;;;;5097443;28;20416;-66
2021/04/30 11:15:53;;;;;;;12.50;6.22;;;9.60;99.90;;;;;;5095135;28;20047;-67
2021/04/30 11:18:30;;;;;;;12.48;6.28;;;9.60;99.90;;;;;;5093446;28;20035;-65
2021/04/30 11:21:16;;;;;;;11.25;6.13;;;9.70;99.90;;;;;;5094152;28;20485;-66
2021/04/30 11:23:46;;;;;;;9.50;5.95;;;9.90;99.90;;;;;;5095376;28;20035;-67
2021/04/30 11:26:16;;;;;;;9.27;5.15;;;10.00;99.90;;;;;;5096243;28;20047;-66
2021/04/30 11:28:41;;;;;;;12.30;5.97;;;10.20;99.90;;;;;;5092813;28;20038;-66
2021/04/30 11:31:27;;;;;;;12.07;5.65;;;10.30;99.90;;;;;;5095044;28;20036;-67
2021/04/30 11:34:15;;;;;;;9.38;5.50;;;10.40;99.90;;;;;;5096526;28;20406;-67
2021/04/30 11:36:43;;;;;;;9.65;5.53;;;10.60;99.90;;;;;;5095409;28;20488;-67
2021/04/30 11:39:33;;;;;;;8.02;5.20;;;10.70;99.90;;;;;;5093086;28;20034;-66
2021/04/30 11:42:05;;;;;;;9.25;5.00;;;10.80;99.90;;;;;;5109881;27;20360;-66
2021/04/30 11:44:31;;;;;;;8.85;5.50;;;10.90;99.90;;;;;;5101295;28;20040;-66
2021/04/30 11:47:07;;;;;;;9.13;5.32;;;11.00;99.90;;;;;;5107889;27;20085;-67
2021/04/30 11:49:38;;;;;;;9.23;5.55;;;11.10;99.90;;;;;;5108414;28;20047;-67
2021/04/30 11:52:04;;;;;;;9.43;6.07;;;11.20;99.90;;;;;;5110898;27;20031;-66
2021/04/30 11:54:35;;;;;;;9.43;6.18;;;11.30;99.90;;;;;;5116487;27;20503;-66
2021/04/30 11:57:02;;;;;;;;;;;11.40;99.90;;;;;;5118566;27;20039;-66
2021/04/30 11:59:28;;;;;;;8.70;5.07;;;11.50;99.90;;;;;;5114071;27;19915;-66
2021/04/30 12:02:04;;;;;;;9.32;5.30;;;11.70;99.90;;;;;;5115000;27;20097;-66
2021/04/30 12:04:42;;;;;;;9.75;5.43;;;11.90;99.90;;;;;;5106048;27;20063;-66
2021/04/30 12:07:09;;;;;;;9.38;5.68;;;11.90;99.90;;;;;;5117921;27;20566;-66
2021/04/30 12:09:35;;;;;;;10.40;5.68;;;11.90;99.90;;;;;;5117202;27;20044;-66
2021/04/30 12:12:18;;;;;;;11.10;5.53;;;11.90;99.90;;;;;;5107244;27;20394;-66
2021/04/30 12:14:51;;;;;;;9.82;5.15;;;11.80;99.90;;;;;;5106403;27;20122;-66
2021/04/30 12:17:24;;;;;;;11.80;5.28;;;11.80;99.90;;;;;;5107315;27;20028;-67
2021/04/30 12:19:58;;;;;;;12.25;5.45;;;11.60;99.90;;;;;;5106863;27;20043;-66
2021/04/30 12:22:25;;;;;;;10.48;5.75;;;11.50;99.90;;;;;;5108943;27;20486;-66
2021/04/30 12:24:51;;;;;;;8.52;5.55;;;11.40;99.90;;;;;;5116704;27;20040;-66
2021/04/30 12:27:30;;;;;;;10.20;6.03;;;11.40;99.90;;;;;;5111122;27;20240;-67
2021/04/30 12:29:56;;;;;;;9.55;5.20;;;11.30;99.90;;;;;;5108302;27;20081;-66
2021/04/30 12:32:26;;;;;;;10.30;5.90;;;11.20;99.90;;;;;;5115094;27;20031;-66
2021/04/30 12:34:54;;;;;;;9.90;5.80;;;11.10;99.90;;;;;;5112490;27;20061;-66
2021/04/30 12:37:20;;;;;;;9.90;5.80;;;11.10;99.90;;;;;;5110521;27;20038;-67
2021/04/30 12:39:46;;;;;;;10.80;5.70;;;10.90;99.90;;;;;;5105956;27;20039;-66
2021/04/30 12:42:11;;;;;;;14.02;6.10;;;10.90;99.90;;;;;;5114565;27;20040;-67
2021/04/30 12:44:37;;;;;;;9.43;5.78;;;11.00;99.90;;;;;;5116858;27;20106;-66
2021/04/30 12:47:05;;;;;;;7.93;5.13;;;11.00;99.90;;;;;;5113394;27;20055;-66
2021/04/30 12:49:34;;;;;;;6.63;4.45;;;11.00;99.90;;;;;;5112886;27;20488;-66
2021/04/30 12:52:04;;;;;;;8.27;4.40;;;11.00;99.90;;;;;;5114266;27;20039;-66
2021/04/30 12:54:34;;;;;;;7.78;4.85;;;11.10;99.90;;;;;;5107215;27;20492;-66